sensor_id;sensor_type;location;lat;lon;timestamp;temperature;humidity
21834;DHT22;11079;51.092;3.458;2023-04-03T00:00:46;3.90;99.90
21834;DHT22;11079;51.092;3.458;2023-04-03T00:03:13;4.00;99.90
21834;DHT22;11079;51.092;3.458;2023-04-03T00:05:39;3.90;99.90
21834;DHT22;11079;51.092;3.458;2023-04-03T00:08:05;4.10;99.90
21834;DHT22;11079;51.092;3.458;2023-04-03T00:10:33;4.10;99.90
21834;DHT22;11079;51.092;3.458;2023-04-03T00:13:03;4.00;99.90
21834;DHT22;11079;51.092;3.458;2023-04-03T00:15:35;4.00;99.90
21834;DHT22;11079;51.092;3.458;2023-04-03T00:18:02;3.90;99.90
21834;DHT22;11079;51.092;3.458;2023-04-03T00:20:27;3.80;99.90
21834;DHT22;11079;51.092;3.458;2023-04-03T00:22:54;3.70;99.90
21834;DHT22;11079;51.092;3.458;2023-04-03T00:25:20;3.80;99.90
21834;DHT22;11079;51.092;3.458;2023-04-03T00:27:47;3.60;99.90
21834;DHT22;11079;51.092;3.458;2023-04-03T00:30:15;3.60;99.90
21834;DHT22;11079;51.092;3.458;2023-04-03T00:32:41;3.60;99.90
21834;DHT22;11079;51.092;3.458;2023-04-03T00:35:08;3.70;99.90
21834;DHT22;11079;51.092;3.458;2023-04-03T00:37:34;3.60;99.90
21834;DHT22;11079;51.092;3.458;2023-04-03T00:40:00;3.60;99.90
21834;DHT22;11079;51.092;3.458;2023-04-03T00:42:29;3.50;99.90
21834;DHT22;11079;51.092;3.458;2023-04-03T00:47:23;3.60;99.90
21834;DHT22;11079;51.092;3.458;2023-04-03T00:49:51;3.60;99.90
21834;DHT22;11079;51.092;3.458;2023-04-03T00:52:28;3.70;99.90
21834;DHT22;11079;51.092;3.458;2023-04-03T00:54:58;3.60;99.90
21834;DHT22;11079;51.092;3.458;2023-04-03T00:57:35;3.60;99.90
21834;DHT22;11079;51.092;3.458;2023-04-03T01:00:06;3.50;99.90
21834;DHT22;11079;51.092;3.458;2023-04-03T01:02:35;3.50;99.90
21834;DHT22;11079;51.092;3.458;2023-04-03T01:05:05;3.50;99.90
21834;DHT22;11079;51.092;3.458;2023-04-03T01:07:37;3.50;99.90
21834;DHT22;11079;51.092;3.458;2023-04-03T01:10:10;3.60;99.90
21834;DHT22;11079;51.092;3.458;2023-04-03T01:12:38;3.60;99.90
21834;DHT22;11079;51.092;3.458;2023-04-03T01:17:44;3.50;99.90
21834;DHT22;11079;51.092;3.458;2023-04-03T01:20:40;3.40;99.90
21834;DHT22;11079;51.092;3.458;2023-04-03T01:23:32;3.40;99.90
21834;DHT22;11079;51.092;3.458;2023-04-03T01:26:05;3.40;99.90
21834;DHT22;11079;51.092;3.458;2023-04-03T01:28:34;3.50;99.90
21834;DHT22;11079;51.092;3.458;2023-04-03T01:31:39;3.50;99.90
21834;DHT22;11079;51.092;3.458;2023-04-03T01:34:05;3.50;99.90
21834;DHT22;11079;51.092;3.458;2023-04-03T01:36:33;3.60;99.90
21834;DHT22;11079;51.092;3.458;2023-04-03T01:39:00;3.50;99.90
21834;DHT22;11079;51.092;3.458;2023-04-03T01:41:26;3.60;99.90
21834;DHT22;11079;51.092;3.458;2023-04-03T01:43:53;3.40;99.90
21834;DHT22;11079;51.092;3.458;2023-04-03T01:46:21;3.40;99.90
21834;DHT22;11079;51.092;3.458;2023-04-03T01:48:48;3.40;99.90
21834;DHT22;11079;51.092;3.458;2023-04-03T01:51:13;3.40;99.90
21834;DHT22;11079;51.092;3.458;2023-04-03T01:53:39;3.30;99.90
21834;DHT22;11079;51.092;3.458;2023-04-03T01:56:10;3.30;99.90
21834;DHT22;11079;51.092;3.458;2023-04-03T01:58:39;3.40;99.90
21834;DHT22;11079;51.092;3.458;2023-04-03T02:01:09;3.50;99.90
21834;DHT22;11079;51.092;3.458;2023-04-03T02:03:49;3.40;99.90
21834;DHT22;11079;51.092;3.458;2023-04-03T02:06:16;3.60;99.90
21834;DHT22;11079;51.092;3.458;2023-04-03T02:08:48;3.70;99.90
21834;DHT22;11079;51.092;3.458;2023-04-03T02:11:16;3.80;99.90
21834;DHT22;11079;51.092;3.458;2023-04-03T02:16:56;3.70;99.90
21834;DHT22;11079;51.092;3.458;2023-04-03T02:19:34;3.80;99.90
21834;DHT22;11079;51.092;3.458;2023-04-03T02:22:05;3.80;99.90
21834;DHT22;11079;51.092;3.458;2023-04-03T02:24:31;3.60;99.90
21834;DHT22;11079;51.092;3.458;2023-04-03T02:27:00;3.60;99.90
21834;DHT22;11079;51.092;3.458;2023-04-03T02:29:28;3.60;99.90
21834;DHT22;11079;51.092;3.458;2023-04-03T02:31:54;3.60;99.90
21834;DHT22;11079;51.092;3.458;2023-04-03T02:34:23;3.60;99.90
21834;DHT22;11079;51.092;3.458;2023-04-03T02:36:48;3.50;99.90
21834;DHT22;11079;51.092;3.458;2023-04-03T02:39:24;3.40;99.90
21834;DHT22;11079;51.092;3.458;2023-04-03T02:41:50;3.50;99.90
21834;DHT22;11079;51.092;3.458;2023-04-03T02:44:51;3.30;99.90
21834;DHT22;11079;51.092;3.458;2023-04-03T02:47:19;3.30;99.90
21834;DHT22;11079;51.092;3.458;2023-04-03T02:49:48;3.30;99.90
21834;DHT22;11079;51.092;3.458;2023-04-03T02:52:20;3.20;99.90
21834;DHT22;11079;51.092;3.458;2023-04-03T02:54:45;3.30;99.90
21834;DHT22;11079;51.092;3.458;2023-04-03T02:57:11;3.30;99.90
21834;DHT22;11079;51.092;3.458;2023-04-03T02:59:37;3.30;99.90
21834;DHT22;11079;51.092;3.458;2023-04-03T03:02:13;3.20;99.90
21834;DHT22;11079;51.092;3.458;2023-04-03T03:04:43;3.20;99.90
21834;DHT22;11079;51.092;3.458;2023-04-03T03:07:30;3.10;99.90
21834;DHT22;11079;51.092;3.458;2023-04-03T03:09:56;3.30;99.90
21834;DHT22;11079;51.092;3.458;2023-04-03T03:12:25;3.10;99.90
21834;DHT22;11079;51.092;3.458;2023-04-03T03:14:51;3.00;99.90
21834;DHT22;11079;51.092;3.458;2023-04-03T03:17:19;3.00;99.90
21834;DHT22;11079;51.092;3.458;2023-04-03T03:19:50;3.00;99.90
21834;DHT22;11079;51.092;3.458;2023-04-03T03:22:19;3.10;99.90
21834;DHT22;11079;51.092;3.458;2023-04-03T03:24:49;3.20;99.90
21834;DHT22;11079;51.092;3.458;2023-04-03T03:27:15;3.20;99.90
21834;DHT22;11079;51.092;3.458;2023-04-03T03:29:41;3.10;99.90
21834;DHT22;11079;51.092;3.458;2023-04-03T03:32:07;3.10;99.90
21834;DHT22;11079;51.092;3.458;2023-04-03T03:34:33;3.20;99.90
21834;DHT22;11079;51.092;3.458;2023-04-03T03:36:59;3.20;99.90
21834;DHT22;11079;51.092;3.458;2023-04-03T03:39:26;3.30;99.90
21834;DHT22;11079;51.092;3.458;2023-04-03T03:42:08;3.30;99.90
21834;DHT22;11079;51.092;3.458;2023-04-03T03:44:34;3.40;99.90
21834;DHT22;11079;51.092;3.458;2023-04-03T03:46:59;3.50;99.90
21834;DHT22;11079;51.092;3.458;2023-04-03T03:49:31;3.40;99.90
21834;DHT22;11079;51.092;3.458;2023-04-03T03:52:05;3.40;99.90
21834;DHT22;11079;51.092;3.458;2023-04-03T03:54:30;3.40;99.90
21834;DHT22;11079;51.092;3.458;2023-04-03T03:57:04;3.40;99.90
21834;DHT22;11079;51.092;3.458;2023-04-03T03:59:30;3.50;99.90
21834;DHT22;11079;51.092;3.458;2023-04-03T04:01:58;3.50;99.90
21834;DHT22;11079;51.092;3.458;2023-04-03T04:04:25;3.40;99.90
21834;DHT22;11079;51.092;3.458;2023-04-03T04:06:50;3.30;99.90
21834;DHT22;11079;51.092;3.458;2023-04-03T04:09:17;3.40;99.90
21834;DHT22;11079;51.092;3.458;2023-04-03T04:11:52;3.30;99.90
21834;DHT22;11079;51.092;3.458;2023-04-03T04:14:21;3.30;99.90
21834;DHT22;11079;51.092;3.458;2023-04-03T04:16:49;3.20;99.90
21834;DHT22;11079;51.092;3.458;2023-04-03T04:19:16;3.20;99.90
21834;DHT22;11079;51.092;3.458;2023-04-03T04:21:42;3.10;99.90
21834;DHT22;11079;51.092;3.458;2023-04-03T04:24:11;3.00;99.90
21834;DHT22;11079;51.092;3.458;2023-04-03T04:26:41;3.00;99.90
21834;DHT22;11079;51.092;3.458;2023-04-03T04:29:12;3.00;99.90
21834;DHT22;11079;51.092;3.458;2023-04-03T04:31:38;3.00;99.90
21834;DHT22;11079;51.092;3.458;2023-04-03T04:34:07;3.00;99.90
21834;DHT22;11079;51.092;3.458;2023-04-03T04:36:39;3.00;99.90
21834;DHT22;11079;51.092;3.458;2023-04-03T04:39:05;3.10;99.90
21834;DHT22;11079;51.092;3.458;2023-04-03T04:41:35;3.00;99.90
21834;DHT22;11079;51.092;3.458;2023-04-03T04:44:04;3.00;99.90
21834;DHT22;11079;51.092;3.458;2023-04-03T04:46:29;3.00;99.90
21834;DHT22;11079;51.092;3.458;2023-04-03T04:48:55;3.10;99.90
21834;DHT22;11079;51.092;3.458;2023-04-03T04:51:21;3.10;99.90
21834;DHT22;11079;51.092;3.458;2023-04-03T04:53:49;3.00;99.90
21834;DHT22;11079;51.092;3.458;2023-04-03T04:56:18;2.90;99.90
21834;DHT22;11079;51.092;3.458;2023-04-03T04:58:49;2.90;99.90
21834;DHT22;11079;51.092;3.458;2023-04-03T05:01:16;2.80;99.90
21834;DHT22;11079;51.092;3.458;2023-04-03T05:03:50;2.80;99.90
21834;DHT22;11079;51.092;3.458;2023-04-03T05:06:18;2.80;99.90
21834;DHT22;11079;51.092;3.458;2023-04-03T05:08:43;3.00;99.90
21834;DHT22;11079;51.092;3.458;2023-04-03T05:11:12;2.90;99.90
21834;DHT22;11079;51.092;3.458;2023-04-03T05:13:39;2.90;99.90
21834;DHT22;11079;51.092;3.458;2023-04-03T05:16:08;2.80;99.90
21834;DHT22;11079;51.092;3.458;2023-04-03T05:18:33;2.80;99.90
21834;DHT22;11079;51.092;3.458;2023-04-03T05:21:00;2.90;99.90
21834;DHT22;11079;51.092;3.458;2023-04-03T05:23:26;2.80;99.90
21834;DHT22;11079;51.092;3.458;2023-04-03T05:25:55;2.90;99.90
21834;DHT22;11079;51.092;3.458;2023-04-03T05:28:21;2.80;99.90
21834;DHT22;11079;51.092;3.458;2023-04-03T05:30:57;2.90;99.90
21834;DHT22;11079;51.092;3.458;2023-04-03T05:33:26;2.80;99.90
21834;DHT22;11079;51.092;3.458;2023-04-03T05:35:54;2.90;99.90
21834;DHT22;11079;51.092;3.458;2023-04-03T05:38:19;3.00;99.90
21834;DHT22;11079;51.092;3.458;2023-04-03T05:40:47;2.90;99.90
21834;DHT22;11079;51.092;3.458;2023-04-03T05:43:13;3.00;99.90
21834;DHT22;11079;51.092;3.458;2023-04-03T05:45:39;3.00;99.90
21834;DHT22;11079;51.092;3.458;2023-04-03T05:48:05;3.40;99.90
21834;DHT22;11079;51.092;3.458;2023-04-03T05:50:31;4.10;99.90
21834;DHT22;11079;51.092;3.458;2023-04-03T05:52:58;4.80;99.90
21834;DHT22;11079;51.092;3.458;2023-04-03T05:55:25;5.60;99.90
21834;DHT22;11079;51.092;3.458;2023-04-03T05:57:52;6.30;99.90
21834;DHT22;11079;51.092;3.458;2023-04-03T06:00:20;7.00;99.90
21834;DHT22;11079;51.092;3.458;2023-04-03T06:02:48;7.70;99.90
21834;DHT22;11079;51.092;3.458;2023-04-03T06:05:14;8.40;99.90
21834;DHT22;11079;51.092;3.458;2023-04-03T06:07:44;9.00;99.90
21834;DHT22;11079;51.092;3.458;2023-04-03T06:10:12;9.80;99.90
21834;DHT22;11079;51.092;3.458;2023-04-03T06:12:39;10.40;99.90
21834;DHT22;11079;51.092;3.458;2023-04-03T06:15:06;11.20;99.90
21834;DHT22;11079;51.092;3.458;2023-04-03T06:17:33;11.80;99.90
21834;DHT22;11079;51.092;3.458;2023-04-03T06:19:59;12.50;99.90
21834;DHT22;11079;51.092;3.458;2023-04-03T06:22:24;13.10;99.90
21834;DHT22;11079;51.092;3.458;2023-04-03T06:24:51;13.60;99.90
21834;DHT22;11079;51.092;3.458;2023-04-03T06:27:16;14.20;99.90
21834;DHT22;11079;51.092;3.458;2023-04-03T06:29:42;14.80;99.90
21834;DHT22;11079;51.092;3.458;2023-04-03T06:32:10;15.40;99.90
21834;DHT22;11079;51.092;3.458;2023-04-03T06:34:35;16.00;99.90
21834;DHT22;11079;51.092;3.458;2023-04-03T06:37:01;16.50;99.90
21834;DHT22;11079;51.092;3.458;2023-04-03T06:39:26;17.00;99.90
21834;DHT22;11079;51.092;3.458;2023-04-03T06:41:52;17.20;99.90
21834;DHT22;11079;51.092;3.458;2023-04-03T06:44:18;17.70;99.90
21834;DHT22;11079;51.092;3.458;2023-04-03T06:46:44;18.10;99.90
21834;DHT22;11079;51.092;3.458;2023-04-03T06:49:12;18.60;99.90
21834;DHT22;11079;51.092;3.458;2023-04-03T06:51:38;18.90;99.90
21834;DHT22;11079;51.092;3.458;2023-04-03T06:54:05;19.60;99.90
21834;DHT22;11079;51.092;3.458;2023-04-03T06:56:32;20.40;99.90
21834;DHT22;11079;51.092;3.458;2023-04-03T06:58:58;21.50;99.90
21834;DHT22;11079;51.092;3.458;2023-04-03T07:01:25;22.50;99.90
21834;DHT22;11079;51.092;3.458;2023-04-03T07:03:55;23.20;97.60
21834;DHT22;11079;51.092;3.458;2023-04-03T07:06:21;23.80;94.70
21834;DHT22;11079;51.092;3.458;2023-04-03T07:08:47;24.20;91.50
21834;DHT22;11079;51.092;3.458;2023-04-03T07:11:14;24.60;89.30
21834;DHT22;11079;51.092;3.458;2023-04-03T07:13:40;25.00;85.20
21834;DHT22;11079;51.092;3.458;2023-04-03T07:16:07;25.40;82.00
21834;DHT22;11079;51.092;3.458;2023-04-03T07:18:33;25.70;79.70
21834;DHT22;11079;51.092;3.458;2023-04-03T07:20:59;26.00;76.20
21834;DHT22;11079;51.092;3.458;2023-04-03T07:23:25;26.00;73.60
21834;DHT22;11079;51.092;3.458;2023-04-03T07:25:52;26.30;71.80
21834;DHT22;11079;51.092;3.458;2023-04-03T07:28:19;26.50;70.00
21834;DHT22;11079;51.092;3.458;2023-04-03T07:30:46;26.00;69.80
21834;DHT22;11079;51.092;3.458;2023-04-03T07:33:13;26.40;71.10
21834;DHT22;11079;51.092;3.458;2023-04-03T07:35:40;27.30;68.40
21834;DHT22;11079;51.092;3.458;2023-04-03T07:38:06;27.90;66.60
21834;DHT22;11079;51.092;3.458;2023-04-03T07:40:32;27.80;64.70
21834;DHT22;11079;51.092;3.458;2023-04-03T07:42:58;28.40;64.20
21834;DHT22;11079;51.092;3.458;2023-04-03T07:45:24;28.40;62.70
21834;DHT22;11079;51.092;3.458;2023-04-03T07:47:50;28.40;61.10
21834;DHT22;11079;51.092;3.458;2023-04-03T07:50:17;27.80;61.50
21834;DHT22;11079;51.092;3.458;2023-04-03T07:52:47;27.70;61.50
21834;DHT22;11079;51.092;3.458;2023-04-03T07:55:12;28.30;62.10
21834;DHT22;11079;51.092;3.458;2023-04-03T07:57:38;28.30;60.80
21834;DHT22;11079;51.092;3.458;2023-04-03T08:00:10;28.50;60.50
21834;DHT22;11079;51.092;3.458;2023-04-03T08:02:37;28.10;60.10
21834;DHT22;11079;51.092;3.458;2023-04-03T08:05:03;27.70;60.30
21834;DHT22;11079;51.092;3.458;2023-04-03T08:07:29;28.30;62.80
21834;DHT22;11079;51.092;3.458;2023-04-03T08:09:54;28.30;61.30
21834;DHT22;11079;51.092;3.458;2023-04-03T08:12:26;27.90;61.30
21834;DHT22;11079;51.092;3.458;2023-04-03T08:14:53;27.60;60.70
21834;DHT22;11079;51.092;3.458;2023-04-03T08:17:20;26.70;59.50
21834;DHT22;11079;51.092;3.458;2023-04-03T08:19:46;26.10;61.00
21834;DHT22;11079;51.092;3.458;2023-04-03T08:22:11;25.60;62.50
21834;DHT22;11079;51.092;3.458;2023-04-03T08:24:37;25.00;63.50
21834;DHT22;11079;51.092;3.458;2023-04-03T08:27:06;23.20;63.70
21834;DHT22;11079;51.092;3.458;2023-04-03T08:29:32;22.20;68.40
21834;DHT22;11079;51.092;3.458;2023-04-03T08:31:58;22.10;69.00
21834;DHT22;11079;51.092;3.458;2023-04-03T08:34:23;22.70;69.10
21834;DHT22;11079;51.092;3.458;2023-04-03T08:36:52;23.20;68.70
21834;DHT22;11079;51.092;3.458;2023-04-03T08:39:18;22.70;70.00
21834;DHT22;11079;51.092;3.458;2023-04-03T08:41:44;23.60;68.20
21834;DHT22;11079;51.092;3.458;2023-04-03T08:44:44;22.70;65.80
21834;DHT22;11079;51.092;3.458;2023-04-03T08:49:56;22.30;67.60
21834;DHT22;11079;51.092;3.458;2023-04-03T08:55:13;22.50;67.50
21834;DHT22;11079;51.092;3.458;2023-04-03T08:57:43;22.80;69.80
21834;DHT22;11079;51.092;3.458;2023-04-03T09:00:21;23.10;68.60
21834;DHT22;11079;51.092;3.458;2023-04-03T09:02:50;23.60;68.60
21834;DHT22;11079;51.092;3.458;2023-04-03T09:08:09;23.10;65.70
21834;DHT22;11079;51.092;3.458;2023-04-03T09:10:38;22.80;69.40
21834;DHT22;11079;51.092;3.458;2023-04-03T09:13:30;23.50;68.30
21834;DHT22;11079;51.092;3.458;2023-04-03T09:15:57;23.50;67.80
21834;DHT22;11079;51.092;3.458;2023-04-03T09:18:31;22.70;67.80
21834;DHT22;11079;51.092;3.458;2023-04-03T09:21:27;22.80;71.70
21834;DHT22;11079;51.092;3.458;2023-04-03T09:24:12;23.80;69.30
21834;DHT22;11079;51.092;3.458;2023-04-03T09:26:57;23.60;68.90
21834;DHT22;11079;51.092;3.458;2023-04-03T09:29:26;23.30;70.40
21834;DHT22;11079;51.092;3.458;2023-04-03T09:32:09;23.90;69.20
21834;DHT22;11079;51.092;3.458;2023-04-03T09:34:41;23.10;70.00
21834;DHT22;11079;51.092;3.458;2023-04-03T09:37:07;23.00;68.60
21834;DHT22;11079;51.092;3.458;2023-04-03T09:39:55;21.80;67.60
21834;DHT22;11079;51.092;3.458;2023-04-03T09:42:23;20.80;73.80
21834;DHT22;11079;51.092;3.458;2023-04-03T09:45:01;19.60;74.50
21834;DHT22;11079;51.092;3.458;2023-04-03T09:47:34;19.20;74.90
21834;DHT22;11079;51.092;3.458;2023-04-03T09:52:54;18.60;75.40
21834;DHT22;11079;51.092;3.458;2023-04-03T09:55:22;19.50;77.80
21834;DHT22;11079;51.092;3.458;2023-04-03T09:57:53;20.20;75.70
21834;DHT22;11079;51.092;3.458;2023-04-03T10:00:31;21.00;71.90
21834;DHT22;11079;51.092;3.458;2023-04-03T10:02:59;21.80;69.10
21834;DHT22;11079;51.092;3.458;2023-04-03T10:05:38;22.00;65.80
21834;DHT22;11079;51.092;3.458;2023-04-03T10:08:28;21.90;67.00
21834;DHT22;11079;51.092;3.458;2023-04-03T10:13:35;23.60;63.70
21834;DHT22;11079;51.092;3.458;2023-04-03T10:16:20;23.30;63.60
21834;DHT22;11079;51.092;3.458;2023-04-03T10:19:05;23.70;64.20
21834;DHT22;11079;51.092;3.458;2023-04-03T10:21:50;24.40;62.90
21834;DHT22;11079;51.092;3.458;2023-04-03T10:24:28;23.00;63.70
21834;DHT22;11079;51.092;3.458;2023-04-03T10:27:11;23.00;65.70
21834;DHT22;11079;51.092;3.458;2023-04-03T10:33:08;25.60;61.20
21834;DHT22;11079;51.092;3.458;2023-04-03T10:41:19;23.80;60.40
21834;DHT22;11079;51.092;3.458;2023-04-03T10:44:11;23.70;61.00
21834;DHT22;11079;51.092;3.458;2023-04-03T10:47:11;23.90;61.60
21834;DHT22;11079;51.092;3.458;2023-04-03T10:57:58;23.30;60.00
21834;DHT22;11079;51.092;3.458;2023-04-03T11:00:43;23.70;58.40
21834;DHT22;11079;51.092;3.458;2023-04-03T11:03:35;23.80;60.40
21834;DHT22;11079;51.092;3.458;2023-04-03T11:09:28;24.20;60.30
21834;DHT22;11079;51.092;3.458;2023-04-03T11:12:01;24.40;57.80
21834;DHT22;11079;51.092;3.458;2023-04-03T11:14:44;22.80;58.70
21834;DHT22;11079;51.092;3.458;2023-04-03T11:17:15;22.30;62.40
21834;DHT22;11079;51.092;3.458;2023-04-03T11:19:47;23.20;60.80
21834;DHT22;11079;51.092;3.458;2023-04-03T11:22:35;23.30;61.20
21834;DHT22;11079;51.092;3.458;2023-04-03T11:25:10;23.10;59.70
21834;DHT22;11079;51.092;3.458;2023-04-03T11:33:29;21.20;62.20
21834;DHT22;11079;51.092;3.458;2023-04-03T11:38:44;20.80;61.40
21834;DHT22;11079;51.092;3.458;2023-04-03T11:41:13;21.10;64.40
21834;DHT22;11079;51.092;3.458;2023-04-03T11:43:42;21.50;62.20
21834;DHT22;11079;51.092;3.458;2023-04-03T11:46:12;21.50;59.00
21834;DHT22;11079;51.092;3.458;2023-04-03T11:48:44;21.00;59.30
21834;DHT22;11079;51.092;3.458;2023-04-03T11:53:41;19.70;59.30
21834;DHT22;11079;51.092;3.458;2023-04-03T12:01:47;19.50;61.70
21834;DHT22;11079;51.092;3.458;2023-04-03T12:04:14;20.90;61.90
21834;DHT22;11079;51.092;3.458;2023-04-03T12:06:42;21.30;59.50
21834;DHT22;11079;51.092;3.458;2023-04-03T12:09:33;21.90;57.80
21834;DHT22;11079;51.092;3.458;2023-04-03T12:12:00;21.30;56.10
21834;DHT22;11079;51.092;3.458;2023-04-03T12:14:28;19.50;57.80
21834;DHT22;11079;51.092;3.458;2023-04-03T12:16:55;19.70;59.80
21834;DHT22;11079;51.092;3.458;2023-04-03T12:24:34;19.90;61.90
21834;DHT22;11079;51.092;3.458;2023-04-03T12:35:36;19.40;57.80
21834;DHT22;11079;51.092;3.458;2023-04-03T12:46:18;21.30;59.30
21834;DHT22;11079;51.092;3.458;2023-04-03T12:51:19;20.00;56.40
21834;DHT22;11079;51.092;3.458;2023-04-03T12:53:46;19.10;60.20
21834;DHT22;11079;51.092;3.458;2023-04-03T12:56:27;18.80;58.60
21834;DHT22;11079;51.092;3.458;2023-04-03T12:58:56;18.70;58.70
21834;DHT22;11079;51.092;3.458;2023-04-03T13:01:37;18.70;59.40
21834;DHT22;11079;51.092;3.458;2023-04-03T13:04:03;18.60;60.20
21834;DHT22;11079;51.092;3.458;2023-04-03T13:06:39;19.20;63.30
21834;DHT22;11079;51.092;3.458;2023-04-03T13:09:13;20.20;62.00
21834;DHT22;11079;51.092;3.458;2023-04-03T13:11:44;21.10;59.60
21834;DHT22;11079;51.092;3.458;2023-04-03T13:14:34;21.20;55.60
21834;DHT22;11079;51.092;3.458;2023-04-03T13:17:22;21.20;58.50
21834;DHT22;11079;51.092;3.458;2023-04-03T13:19:48;21.60;59.00
21834;DHT22;11079;51.092;3.458;2023-04-03T13:22:29;21.30;57.80
21834;DHT22;11079;51.092;3.458;2023-04-03T13:24:59;20.80;60.70
21834;DHT22;11079;51.092;3.458;2023-04-03T13:27:27;21.60;59.80
21834;DHT22;11079;51.092;3.458;2023-04-03T13:30:00;21.20;59.50
21834;DHT22;11079;51.092;3.458;2023-04-03T13:32:30;21.50;60.10
21834;DHT22;11079;51.092;3.458;2023-04-03T13:34:57;20.90;57.80
21834;DHT22;11079;51.092;3.458;2023-04-03T13:37:28;19.70;60.20
21834;DHT22;11079;51.092;3.458;2023-04-03T13:40:20;20.60;61.10
21834;DHT22;11079;51.092;3.458;2023-04-03T13:43:00;20.90;59.80
21834;DHT22;11079;51.092;3.458;2023-04-03T13:45:31;21.10;59.30
21834;DHT22;11079;51.092;3.458;2023-04-03T13:48:11;21.10;57.00
21834;DHT22;11079;51.092;3.458;2023-04-03T13:53:19;18.70;59.00
21834;DHT22;11079;51.092;3.458;2023-04-03T13:59:19;19.80;63.70
21834;DHT22;11079;51.092;3.458;2023-04-03T14:01:52;20.50;60.10
21834;DHT22;11079;51.092;3.458;2023-04-03T14:04:28;21.10;59.40
21834;DHT22;11079;51.092;3.458;2023-04-03T14:06:55;21.20;59.30
21834;DHT22;11079;51.092;3.458;2023-04-03T14:09:22;20.90;57.60
21834;DHT22;11079;51.092;3.458;2023-04-03T14:12:06;21.10;60.10
21834;DHT22;11079;51.092;3.458;2023-04-03T14:14:35;20.40;57.50
21834;DHT22;11079;51.092;3.458;2023-04-03T14:17:20;21.10;58.70
21834;DHT22;11079;51.092;3.458;2023-04-03T14:19:48;20.80;57.80
21834;DHT22;11079;51.092;3.458;2023-04-03T14:22:34;21.30;57.30
21834;DHT22;11079;51.092;3.458;2023-04-03T14:25:02;21.00;56.40
21834;DHT22;11079;51.092;3.458;2023-04-03T14:27:38;20.10;58.00
21834;DHT22;11079;51.092;3.458;2023-04-03T14:30:28;19.50;58.00
21834;DHT22;11079;51.092;3.458;2023-04-03T14:32:55;19.50;60.10
21834;DHT22;11079;51.092;3.458;2023-04-03T14:35:23;19.40;60.50
21834;DHT22;11079;51.092;3.458;2023-04-03T14:37:53;19.60;61.30
21834;DHT22;11079;51.092;3.458;2023-04-03T14:40:24;18.90;60.00
21834;DHT22;11079;51.092;3.458;2023-04-03T14:42:51;19.10;60.00
21834;DHT22;11079;51.092;3.458;2023-04-03T14:45:21;18.70;59.20
21834;DHT22;11079;51.092;3.458;2023-04-03T14:47:48;18.40;59.70
21834;DHT22;11079;51.092;3.458;2023-04-03T14:50:23;18.00;61.20
21834;DHT22;11079;51.092;3.458;2023-04-03T14:52:52;18.10;59.70
21834;DHT22;11079;51.092;3.458;2023-04-03T14:55:22;17.90;60.60
21834;DHT22;11079;51.092;3.458;2023-04-03T14:57:54;18.10;61.00
21834;DHT22;11079;51.092;3.458;2023-04-03T15:00:21;17.90;62.10
21834;DHT22;11079;51.092;3.458;2023-04-03T15:02:47;17.20;63.80
21834;DHT22;11079;51.092;3.458;2023-04-03T15:05:14;16.40;61.60
21834;DHT22;11079;51.092;3.458;2023-04-03T15:07:42;15.90;60.90
21834;DHT22;11079;51.092;3.458;2023-04-03T15:10:28;15.30;63.10
21834;DHT22;11079;51.092;3.458;2023-04-03T15:12:53;15.00;66.20
21834;DHT22;11079;51.092;3.458;2023-04-03T15:15:22;14.50;66.00
21834;DHT22;11079;51.092;3.458;2023-04-03T15:17:53;14.30;66.30
21834;DHT22;11079;51.092;3.458;2023-04-03T15:20:22;13.80;68.20
21834;DHT22;11079;51.092;3.458;2023-04-03T15:22:48;13.80;67.90
21834;DHT22;11079;51.092;3.458;2023-04-03T15:25:14;13.50;70.00
21834;DHT22;11079;51.092;3.458;2023-04-03T15:27:40;13.30;70.40
21834;DHT22;11079;51.092;3.458;2023-04-03T15:30:10;13.40;72.40
21834;DHT22;11079;51.092;3.458;2023-04-03T15:32:36;13.40;70.80
21834;DHT22;11079;51.092;3.458;2023-04-03T15:35:03;13.30;71.60
21834;DHT22;11079;51.092;3.458;2023-04-03T15:37:29;13.30;71.30
21834;DHT22;11079;51.092;3.458;2023-04-03T15:39:55;13.10;72.10
21834;DHT22;11079;51.092;3.458;2023-04-03T15:42:24;13.10;74.10
21834;DHT22;11079;51.092;3.458;2023-04-03T15:44:50;13.20;73.60
21834;DHT22;11079;51.092;3.458;2023-04-03T15:47:18;13.20;71.70
21834;DHT22;11079;51.092;3.458;2023-04-03T15:49:45;13.20;71.70
21834;DHT22;11079;51.092;3.458;2023-04-03T15:52:10;13.20;73.50
21834;DHT22;11079;51.092;3.458;2023-04-03T15:54:36;13.10;74.50
21834;DHT22;11079;51.092;3.458;2023-04-03T15:57:02;13.00;72.20
21834;DHT22;11079;51.092;3.458;2023-04-03T15:59:28;12.90;74.30
21834;DHT22;11079;51.092;3.458;2023-04-03T16:01:56;13.00;74.10
21834;DHT22;11079;51.092;3.458;2023-04-03T16:04:22;12.80;72.70
21834;DHT22;11079;51.092;3.458;2023-04-03T16:06:48;12.70;73.10
21834;DHT22;11079;51.092;3.458;2023-04-03T16:09:14;12.60;72.20
21834;DHT22;11079;51.092;3.458;2023-04-03T16:11:40;12.50;74.60
21834;DHT22;11079;51.092;3.458;2023-04-03T16:14:06;12.50;75.30
21834;DHT22;11079;51.092;3.458;2023-04-03T16:16:32;12.30;74.40
21834;DHT22;11079;51.092;3.458;2023-04-03T16:18:58;12.30;73.10
21834;DHT22;11079;51.092;3.458;2023-04-03T16:21:24;12.30;74.20
21834;DHT22;11079;51.092;3.458;2023-04-03T16:23:51;12.20;72.60
21834;DHT22;11079;51.092;3.458;2023-04-03T16:26:16;12.10;74.60
21834;DHT22;11079;51.092;3.458;2023-04-03T16:28:45;12.10;75.00
21834;DHT22;11079;51.092;3.458;2023-04-03T16:31:11;11.90;75.20
21834;DHT22;11079;51.092;3.458;2023-04-03T16:33:36;11.90;74.50
21834;DHT22;11079;51.092;3.458;2023-04-03T16:36:04;11.90;77.70
21834;DHT22;11079;51.092;3.458;2023-04-03T16:38:31;11.80;76.80
21834;DHT22;11079;51.092;3.458;2023-04-03T16:40:57;11.90;78.70
21834;DHT22;11079;51.092;3.458;2023-04-03T16:43:25;11.80;77.20
21834;DHT22;11079;51.092;3.458;2023-04-03T16:45:51;11.70;75.80
21834;DHT22;11079;51.092;3.458;2023-04-03T16:48:17;11.60;74.70
21834;DHT22;11079;51.092;3.458;2023-04-03T16:50:46;11.50;75.20
21834;DHT22;11079;51.092;3.458;2023-04-03T16:53:14;11.50;76.40
21834;DHT22;11079;51.092;3.458;2023-04-03T16:55:40;11.40;77.30
21834;DHT22;11079;51.092;3.458;2023-04-03T16:58:06;11.50;75.90
21834;DHT22;11079;51.092;3.458;2023-04-03T17:00:32;11.40;75.80
21834;DHT22;11079;51.092;3.458;2023-04-03T17:02:59;11.50;76.20
21834;DHT22;11079;51.092;3.458;2023-04-03T17:05:25;11.40;76.40
21834;DHT22;11079;51.092;3.458;2023-04-03T17:07:51;11.40;75.70
21834;DHT22;11079;51.092;3.458;2023-04-03T17:10:17;11.40;76.20
21834;DHT22;11079;51.092;3.458;2023-04-03T17:12:43;11.20;75.60
21834;DHT22;11079;51.092;3.458;2023-04-03T17:15:09;11.10;76.10
21834;DHT22;11079;51.092;3.458;2023-04-03T17:17:35;11.10;78.90
21834;DHT22;11079;51.092;3.458;2023-04-03T17:20:01;11.10;78.40
21834;DHT22;11079;51.092;3.458;2023-04-03T17:22:28;11.00;78.20
21834;DHT22;11079;51.092;3.458;2023-04-03T17:25:06;11.00;79.50